createdAt,value
2023-04-07T00:01:31.267Z,100566.19
2023-04-07T00:04:32.877Z,100567.91
2023-04-07T00:07:42.044Z,100566.06
2023-04-07T00:10:50.219Z,100555.91
2023-04-07T00:13:51.936Z,100556.06
2023-04-07T00:16:53.588Z,100561.47
2023-04-07T00:19:55.141Z,100558.06
2023-04-07T00:22:56.526Z,100560.94
2023-04-07T00:25:57.962Z,100569.94
2023-04-07T00:29:04.884Z,100567.53
2023-04-07T00:32:06.294Z,100565.66
2023-04-07T00:35:07.886Z,100561.94
2023-04-07T00:38:09.251Z,100569.38
2023-04-07T00:41:10.689Z,100565.81
2023-04-07T00:44:12.483Z,100572.25
2023-04-07T00:47:14.489Z,100567.69
2023-04-07T00:50:16.161Z,100565.09
2023-04-07T00:53:17.645Z,100557.84
2023-04-07T00:56:20.396Z,100548.00
2023-04-07T00:59:22.012Z,100553.41
2023-04-07T01:02:27.353Z,100548.00
2023-04-07T01:05:38.863Z,100549.00
2023-04-07T01:09:02.028Z,100557.16
2023-04-07T01:12:04.410Z,100553.59
2023-04-07T01:15:09.686Z,100554.44
2023-04-07T01:18:24.138Z,100546.44
2023-04-07T01:21:27.677Z,100550.19
2023-04-07T01:24:50.274Z,100545.59
2023-04-07T01:28:01.357Z,100548.44
2023-04-07T01:31:04.711Z,100548.63
2023-04-07T01:34:06.610Z,100546.91
2023-04-07T01:37:09.175Z,100552.50
2023-04-07T01:40:11.565Z,100553.50
2023-04-07T01:43:13.524Z,100549.09
2023-04-07T01:46:15.369Z,100543.81
2023-04-07T01:49:16.863Z,100551.09
2023-04-07T01:52:18.362Z,100548.56
2023-04-07T01:55:21.492Z,100555.81
2023-04-07T01:58:43.148Z,100559.69
2023-04-07T02:01:48.907Z,100548.16
2023-04-07T02:04:58.227Z,100549.16
2023-04-07T02:08:02.277Z,100544.75
2023-04-07T02:11:04.806Z,100551.16
2023-04-07T02:14:09.945Z,100547.59
2023-04-07T02:17:28.492Z,100555.75
2023-04-07T02:20:30.467Z,100545.91
2023-04-07T02:23:34.682Z,100546.91
2023-04-07T02:26:36.568Z,100542.34
2023-04-07T02:29:37.965Z,100535.91
2023-04-07T02:32:39.348Z,100548.63
2023-04-07T02:35:40.736Z,100554.91
2023-04-07T02:38:42.205Z,100543.19
2023-04-07T02:41:43.650Z,100555.91
2023-04-07T02:44:45.022Z,100560.47
2023-04-07T02:47:46.437Z,100554.19
2023-04-07T02:50:47.834Z,100559.59
2023-04-07T02:53:49.262Z,100547.06
2023-04-07T02:56:50.735Z,100545.22
2023-04-07T02:59:52.213Z,100550.78
2023-04-07T03:02:53.862Z,100541.78
2023-04-07T03:05:55.640Z,100547.38
2023-04-07T03:08:57.414Z,100543.78
2023-04-07T03:11:58.875Z,100548.38
2023-04-07T03:15:05.887Z,100540.41
2023-04-07T03:18:08.444Z,100548.69
2023-04-07T03:21:10.125Z,100549.53
2023-04-07T03:24:11.672Z,100544.44
2023-04-07T03:27:13.646Z,100545.28
2023-04-07T03:30:20.741Z,100542.72
2023-04-07T03:33:23.115Z,100542.88
2023-04-07T03:36:24.629Z,100543.91
2023-04-07T03:39:26.709Z,100539.47
2023-04-07T03:42:32.423Z,100545.06
2023-04-07T03:45:38.534Z,100550.47
2023-04-07T03:48:41.459Z,100556.88
2023-04-07T03:51:45.053Z,100548.91
2023-04-07T03:54:50.381Z,100549.91
2023-04-07T03:57:53.968Z,100555.31
2023-04-07T04:00:55.594Z,100554.63
2023-04-07T04:03:58.315Z,100557.50
2023-04-07T04:07:04.918Z,100565.63
2023-04-07T04:10:25.061Z,100560.22
2023-04-07T04:13:28.541Z,100559.38
2023-04-07T04:16:33.023Z,100577.44
2023-04-07T04:19:38.600Z,100575.75
2023-04-07T04:23:06.028Z,100565.22
2023-04-07T04:26:08.952Z,100577.75
2023-04-07T04:29:11.918Z,100581.50
2023-04-07T04:32:17.734Z,100584.34
2023-04-07T04:35:19.711Z,100587.03
2023-04-07T04:38:33.463Z,100584.34
2023-04-07T04:42:01.172Z,100586.19
2023-04-07T04:45:08.177Z,100589.75
2023-04-07T04:48:11.052Z,100596.03
2023-04-07T04:51:12.677Z,100597.75
2023-04-07T04:54:16.613Z,100595.03
2023-04-07T04:57:19.414Z,100594.88
2023-04-07T05:00:21.099Z,100598.28
2023-04-07T05:03:27.015Z,100592.72
2023-04-07T05:06:30.068Z,100602.41
2023-04-07T05:09:36.533Z,100600.41
2023-04-07T05:12:38.106Z,100603.78
2023-04-07T05:15:41.118Z,100610.78
2023-04-07T05:18:45.412Z,100609.63
2023-04-07T05:21:46.949Z,100608.47
2023-04-07T05:24:48.910Z,100620.84
2023-04-07T05:27:50.440Z,100610.59
2023-04-07T05:30:52.742Z,100610.41
2023-04-07T05:33:56.774Z,100612.97
2023-04-07T05:37:01.746Z,100613.69
2023-04-07T05:40:03.708Z,100617.25
2023-04-07T05:43:05.232Z,100619.81
2023-04-07T05:46:08.496Z,100610.81
2023-04-07T05:49:20.031Z,100622.34
2023-04-07T05:52:27.053Z,100615.94
2023-04-07T05:55:38.783Z,100617.63
2023-04-07T05:58:43.472Z,100628.47
2023-04-07T06:01:46.596Z,100623.06
2023-04-07T06:04:48.308Z,100626.78
2023-04-07T06:07:52.277Z,100619.66
2023-04-07T06:10:53.808Z,100631.34
2023-04-07T06:13:55.396Z,100628.78
2023-04-07T06:16:56.925Z,100633.38
2023-04-07T06:19:59.270Z,100637.06
2023-04-07T06:23:00.723Z,100642.50
2023-04-07T06:26:02.135Z,100638.09
2023-04-07T06:29:04.591Z,100640.94
2023-04-07T06:32:06.623Z,100647.38
2023-04-07T06:35:08.278Z,100651.94
2023-04-07T06:38:11.449Z,100648.34
2023-04-07T06:41:16.883Z,100651.25
2023-04-07T06:44:18.307Z,100661.38
2023-04-07T06:47:19.719Z,100663.25
2023-04-07T06:50:22.233Z,100663.38
2023-04-07T06:53:23.809Z,100668.97
2023-04-07T06:56:26.138Z,100670.81
2023-04-07T06:59:27.580Z,100671.81
2023-04-07T07:02:29.148Z,100674.84
2023-04-07T07:05:30.867Z,100687.53
2023-04-07T07:08:32.440Z,100687.69
2023-04-07T07:11:33.916Z,100686.81
2023-04-07T07:14:35.312Z,100688.69
2023-04-07T07:17:36.815Z,100693.41
2023-04-07T07:20:38.290Z,100688.81
2023-04-07T07:23:39.840Z,100691.69
2023-04-07T07:26:43.465Z,100701.66
2023-04-07T07:29:45.813Z,100695.41
2023-04-07T07:32:47.208Z,100696.41
2023-04-07T07:35:48.869Z,100698.41
2023-04-07T07:38:51.542Z,100699.25
2023-04-07T07:41:52.981Z,100694.84
2023-04-07T07:44:54.374Z,100698.53
2023-04-07T07:47:55.907Z,100696.84
2023-04-07T07:50:57.373Z,100704.13
2023-04-07T07:53:58.931Z,100702.41
2023-04-07T07:57:00.417Z,100712.41
2023-04-07T08:00:02.055Z,100710.53
2023-04-07T08:03:14.656Z,100705.28
2023-04-07T08:06:16.624Z,100699.69
2023-04-07T08:09:18.495Z,100697.00
2023-04-07T08:12:19.890Z,100703.25
2023-04-07T08:15:21.801Z,100712.41
2023-04-07T08:18:23.276Z,100717.50
2023-04-07T08:21:24.690Z,100721.78
2023-04-07T08:24:26.096Z,100715.38
2023-04-07T08:27:27.560Z,100727.78
2023-04-07T08:30:28.937Z,100722.19
2023-04-07T08:33:30.344Z,100720.91
2023-04-07T08:36:31.980Z,100730.44
2023-04-07T08:39:33.988Z,100719.44
2023-04-07T08:42:38.322Z,100725.28
2023-04-07T08:45:42.124Z,100732.97
2023-04-07T08:48:44.279Z,100734.34
2023-04-07T08:51:47.398Z,100729.50
2023-04-07T08:54:49.254Z,100730.22
2023-04-07T08:57:51.295Z,100727.34
2023-04-07T09:00:53.188Z,100742.44
2023-04-07T09:03:57.298Z,100731.28
2023-04-07T09:06:58.787Z,100731.88
2023-04-07T09:10:01.624Z,100736.97
2023-04-07T09:13:03.105Z,100738.53
2023-04-07T09:16:04.682Z,100740.09
2023-04-07T09:19:07.164Z,100740.81
2023-04-07T09:22:12.349Z,100743.91
2023-04-07T09:25:22.640Z,100751.22
2023-04-07T09:28:24.114Z,100742.19
2023-04-07T09:31:43.964Z,100748.50
2023-04-07T09:34:45.463Z,100740.34
2023-04-07T09:38:01.317Z,100738.50
2023-04-07T09:41:13.085Z,100729.50
2023-04-07T09:44:14.587Z,100735.78
2023-04-07T09:47:16.039Z,100734.06
2023-04-07T09:50:30.592Z,100735.91
2023-04-07T09:53:47.850Z,100729.50
2023-04-07T09:56:51.071Z,100729.66
2023-04-07T09:59:54.103Z,100728.63
2023-04-07T10:02:56.420Z,100724.22
2023-04-07T10:05:59.797Z,100727.78
2023-04-07T10:09:01.885Z,100722.34
2023-04-07T10:12:06.702Z,100723.50
2023-04-07T10:15:08.503Z,100719.94
2023-04-07T10:18:10.349Z,100723.50
2023-04-07T10:21:15.160Z,100723.69
2023-04-07T10:24:20.158Z,100738.22
2023-04-07T10:27:27.686Z,100720.25
2023-04-07T10:30:31.333Z,100727.56
2023-04-07T10:33:47.012Z,100732.09
2023-04-07T10:37:07.502Z,100734.13
2023-04-07T10:40:21.676Z,100732.41
2023-04-07T10:43:41.865Z,100730.84
2023-04-07T10:46:49.985Z,100738.28
2023-04-07T10:50:18.303Z,100740.31
2023-04-07T10:53:19.916Z,100743.16
2023-04-07T10:56:21.602Z,100739.59
2023-04-07T10:59:27.399Z,100738.88
2023-04-07T11:02:29.227Z,100740.91
2023-04-07T11:05:30.856Z,100738.63
2023-04-07T11:08:36.238Z,100743.50
2023-04-07T11:11:38.878Z,100748.22
2023-04-07T11:14:42.172Z,100745.81
2023-04-07T11:17:43.603Z,100740.69
2023-04-07T11:20:46.074Z,100754.56
2023-04-07T11:23:48.213Z,100744.69
2023-04-07T11:26:50.737Z,100740.59
2023-04-07T11:29:52.266Z,100750.72
2023-04-07T11:32:53.773Z,100753.56
2023-04-07T11:35:56.898Z,100741.16
2023-04-07T11:38:58.943Z,100735.91
2023-04-07T11:42:00.337Z,100744.19
2023-04-07T11:45:01.907Z,100739.06
2023-04-07T11:48:03.413Z,100746.34
2023-04-07T11:51:05.372Z,100751.75
2023-04-07T11:54:06.904Z,100754.59
2023-04-07T11:57:10.415Z,100753.75
2023-04-07T12:00:12.668Z,100759.31
2023-04-07T12:03:14.703Z,100749.50
2023-04-07T12:06:27.548Z,100765.88
2023-04-07T12:09:34.757Z,100748.91
2023-04-07T12:12:36.128Z,100755.22
2023-04-07T12:15:37.660Z,100762.63
2023-04-07T12:18:39.059Z,100774.44
2023-04-07T12:21:40.883Z,100761.06
2023-04-07T12:24:42.414Z,100754.78
2023-04-07T12:27:44.128Z,100758.47
2023-04-07T12:30:45.530Z,100755.78
2023-04-07T12:33:47.128Z,100761.19
2023-04-07T12:36:48.785Z,100753.06
2023-04-07T12:39:50.158Z,100751.38
2023-04-07T12:42:51.924Z,100760.34
2023-04-07T12:45:53.367Z,100754.94
2023-04-07T12:48:54.860Z,100756.78
2023-04-07T12:51:56.579Z,100746.81
2023-04-07T12:54:58.550Z,100758.47
2023-04-07T12:58:00.414Z,100756.78
2023-04-07T13:01:01.881Z,100756.78
2023-04-07T13:04:03.399Z,100751.38
2023-04-07T13:07:04.853Z,100745.09
2023-04-07T13:10:08.147Z,100740.53
2023-04-07T13:13:09.517Z,100739.69
2023-04-07T13:16:11.259Z,100741.38
2023-04-07T13:19:12.679Z,100751.19
2023-04-07T13:22:18.158Z,100742.22
2023-04-07T13:25:23.040Z,100752.22
2023-04-07T13:28:24.482Z,100751.38
2023-04-07T13:31:25.941Z,100743.25
2023-04-07T13:34:27.594Z,100746.81
2023-04-07T13:37:28.988Z,100744.94
2023-04-07T13:40:30.720Z,100757.63
2023-04-07T13:43:32.097Z,100755.78
2023-04-07T13:46:33.540Z,100753.06
2023-04-07T13:49:34.953Z,100759.19
2023-04-07T13:52:36.389Z,100763.78
2023-04-07T13:55:37.894Z,100761.91
2023-04-07T13:58:39.309Z,100756.50
2023-04-07T14:01:40.874Z,100747.34
2023-04-07T14:04:42.425Z,100750.94
2023-04-07T14:07:43.917Z,100750.78
2023-04-07T14:10:45.365Z,100753.34
2023-04-07T14:13:46.993Z,100754.19
2023-04-07T14:16:51.774Z,100746.91
2023-04-07T14:19:53.247Z,100751.34
2023-04-07T14:22:54.823Z,100751.19
2023-04-07T14:25:56.503Z,100750.19
2023-04-07T14:28:58.057Z,100742.91
2023-04-07T14:31:59.439Z,100749.19
2023-04-07T14:35:01.162Z,100756.31
2023-04-07T14:38:02.540Z,100747.31
2023-04-07T14:44:08.345Z,100750.75
2023-04-07T14:47:09.715Z,100748.75
2023-04-07T14:50:11.433Z,100751.28
2023-04-07T14:53:12.839Z,100750.31
2023-04-07T14:56:14.286Z,100749.88
2023-04-07T14:59:15.695Z,100755.69
2023-04-07T15:02:17.271Z,100755.22
2023-04-07T15:05:18.703Z,100761.06
2023-04-07T15:08:20.230Z,100761.47
2023-04-07T15:11:21.825Z,100762.88
2023-04-07T15:14:23.230Z,100758.91
2023-04-07T15:17:36.364Z,100762.16
2023-04-07T15:20:42.390Z,100768.09
2023-04-07T15:23:43.840Z,100759.69
2023-04-07T15:26:45.206Z,100763.81
2023-04-07T15:29:47.069Z,100759.09
2023-04-07T15:33:02.545Z,100762.50
2023-04-07T15:36:04.759Z,100759.34
2023-04-07T15:39:06.802Z,100760.03
2023-04-07T15:42:12.234Z,100768.75
2023-04-07T15:45:13.718Z,100768.59
2023-04-07T15:48:15.343Z,100768.31
2023-04-07T15:51:16.755Z,100766.28
2023-04-07T15:54:18.177Z,100775.13
2023-04-07T15:57:21.124Z,100770.41
2023-04-07T16:00:22.752Z,100771.25
2023-04-07T16:03:24.706Z,100780.09
2023-04-07T16:06:26.349Z,100779.97
2023-04-07T16:09:28.568Z,100778.09
2023-04-07T16:12:30.014Z,100779.78
2023-04-07T16:15:40.111Z,100786.78
2023-04-07T16:18:42.945Z,100790.34
2023-04-07T16:21:47.345Z,100788.50
2023-04-07T16:24:48.772Z,100792.91
2023-04-07T16:27:52.310Z,100791.75
2023-04-07T16:30:53.753Z,100798.88
2023-04-07T16:33:55.194Z,100793.44
2023-04-07T16:36:59.646Z,100796.16
2023-04-07T16:40:01.243Z,100803.44
2023-04-07T16:43:02.732Z,100808.88
2023-04-07T16:46:05.757Z,100805.31
2023-04-07T16:49:07.280Z,100807.00
2023-04-07T16:52:08.788Z,100826.88
2023-04-07T16:55:10.616Z,100818.75
2023-04-07T16:58:12.027Z,100814.31
2023-04-07T17:01:13.471Z,100835.88
2023-04-07T17:04:15.350Z,100836.72
2023-04-07T17:07:16.878Z,100838.59
2023-04-07T17:10:18.260Z,100831.44
2023-04-07T17:13:19.664Z,100843.31
2023-04-07T17:16:21.240Z,100849.44
2023-04-07T17:19:23.096Z,100841.13
2023-04-07T17:22:24.780Z,100850.00
2023-04-07T17:25:26.218Z,100850.00
2023-04-07T17:28:30.026Z,100865.13
2023-04-07T17:31:34.331Z,100862.41
2023-04-07T17:34:36.027Z,100860.41
2023-04-07T17:37:38.280Z,100869.38
2023-04-07T17:40:39.633Z,100873.84
2023-04-07T17:43:41.145Z,100883.66
2023-04-07T17:46:42.612Z,100887.22
2023-04-07T17:49:43.980Z,100888.97
2023-04-07T17:52:45.352Z,100888.09
2023-04-07T17:55:46.723Z,100903.38
2023-04-07T17:58:48.123Z,100901.50
2023-04-07T18:01:49.649Z,100906.81
2023-04-07T18:04:51.278Z,100913.09
2023-04-07T18:07:52.966Z,100918.34
2023-04-07T18:10:54.350Z,100916.50
2023-04-07T18:13:56.426Z,100924.66
2023-04-07T18:16:58.061Z,100932.63
2023-04-07T18:19:59.514Z,100938.06
2023-04-07T18:23:00.932Z,100941.47
2023-04-07T18:26:04.602Z,100935.91
2023-04-07T18:29:09.480Z,100951.06
2023-04-07T18:32:11.525Z,100959.03
2023-04-07T18:35:12.908Z,100964.31
2023-04-07T18:38:14.338Z,100966.00
2023-04-07T18:41:16.031Z,100966.88
2023-04-07T18:44:17.468Z,100968.44
2023-04-07T18:47:18.885Z,100978.44
2023-04-07T18:50:20.312Z,100985.59
2023-04-07T18:53:22.595Z,100989.16
2023-04-07T18:56:27.209Z,100999.31
2023-04-07T18:59:29.025Z,101000.59
2023-04-07T19:02:30.754Z,101003.63
2023-04-07T19:05:32.915Z,101014.47
2023-04-07T19:08:35.228Z,101012.50
2023-04-07T19:11:36.693Z,101022.09
2023-04-07T19:14:38.101Z,101026.50
2023-04-07T19:17:39.572Z,101032.63
2023-04-07T19:20:41.082Z,101033.34
2023-04-07T19:23:42.527Z,101033.06
2023-04-07T19:26:44.634Z,101046.31
2023-04-07T19:29:46.107Z,101040.75
2023-04-07T19:32:47.713Z,101043.31
2023-04-07T19:35:49.122Z,101047.75
2023-04-07T19:38:50.555Z,101052.16
2023-04-07T19:41:52.399Z,101051.19
2023-04-07T19:44:56.144Z,101052.88
2023-04-07T19:47:59.130Z,101047.59
2023-04-07T19:51:00.900Z,101064.75
2023-04-07T19:54:02.305Z,101062.91
2023-04-07T19:57:03.669Z,101070.88
2023-04-07T20:00:05.364Z,101075.47
2023-04-07T20:03:06.981Z,101076.31
2023-04-07T20:06:08.764Z,101074.47
2023-04-07T20:09:10.565Z,101077.00
2023-04-07T20:12:11.991Z,101079.03
2023-04-07T20:15:13.439Z,101088.06
2023-04-07T20:18:16.829Z,101089.88
2023-04-07T20:21:18.177Z,101095.31
2023-04-07T20:24:19.545Z,101087.34
2023-04-07T20:27:21.190Z,101089.19
2023-04-07T20:30:22.546Z,101091.91
2023-04-07T20:33:23.922Z,101097.19
2023-04-07T20:36:26.312Z,101100.75
2023-04-07T20:39:27.682Z,101094.47
2023-04-07T20:42:29.078Z,101098.03
2023-04-07T20:45:30.477Z,101099.91
2023-04-07T20:48:32.422Z,101099.03
2023-04-07T20:51:35.973Z,101110.03
2023-04-07T20:54:37.345Z,101105.50
2023-04-07T20:57:41.710Z,101106.47
2023-04-07T21:00:43.163Z,101108.34
2023-04-07T21:03:44.685Z,101108.47
2023-04-07T21:06:46.266Z,101117.63
2023-04-07T21:09:47.604Z,101114.06
2023-04-07T21:12:48.946Z,101114.22
2023-04-07T21:15:50.444Z,101120.66
2023-04-07T21:18:52.527Z,101125.25
2023-04-07T21:21:53.886Z,101124.53
2023-04-07T21:24:57.254Z,101129.09
2023-04-07T21:27:58.941Z,101127.38
2023-04-07T21:31:03.140Z,101131.09
2023-04-07T21:34:04.613Z,101126.66
2023-04-07T21:37:05.973Z,101124.94
2023-04-07T21:40:07.733Z,101132.09
2023-04-07T21:43:09.146Z,101136.84
2023-04-07T21:46:10.600Z,101131.53
2023-04-07T21:49:14.089Z,101142.53
2023-04-07T21:52:17.309Z,101138.97
2023-04-07T21:55:20.662Z,101140.97
2023-04-07T21:58:23.416Z,101143.84
2023-04-07T22:01:24.782Z,101143.00
2023-04-07T22:04:26.677Z,101143.97
2023-04-07T22:07:28.243Z,101143.13
2023-04-07T22:10:30.954Z,101145.84
2023-04-07T22:13:32.335Z,101145.97
2023-04-07T22:16:34.199Z,101144.25
2023-04-07T22:19:35.754Z,101145.28
2023-04-07T22:22:37.230Z,101141.69
2023-04-07T22:25:38.596Z,101147.28
2023-04-07T22:28:39.965Z,101150.97
2023-04-07T22:31:41.362Z,101150.13
2023-04-07T22:34:42.764Z,101151.97
2023-04-07T22:37:44.185Z,101149.41
2023-04-07T22:40:45.919Z,101153.97
2023-04-07T22:43:47.270Z,101150.41
2023-04-07T22:46:48.626Z,101146.84
2023-04-07T22:49:50.033Z,101149.69
2023-04-07T22:52:51.389Z,101151.56
2023-04-07T22:55:52.774Z,101158.00
2023-04-07T22:58:54.174Z,101168.84
2023-04-07T23:01:57.689Z,101162.56
2023-04-07T23:04:59.730Z,101160.84
2023-04-07T23:08:01.546Z,101165.44
2023-04-07T23:11:02.942Z,101158.25
2023-04-07T23:14:05.982Z,101169.28
2023-04-07T23:17:07.501Z,101171.16
2023-04-07T23:20:09.247Z,101167.72
2023-04-07T23:23:10.780Z,101169.41
2023-04-07T23:26:12.121Z,101172.28
2023-04-07T23:29:13.510Z,101171.41
2023-04-07T23:32:14.895Z,101162.41
2023-04-07T23:35:16.297Z,101167.00
2023-04-07T23:38:17.717Z,101158.84
2023-04-07T23:41:19.090Z,101164.41
2023-04-07T23:44:20.604Z,101172.53
2023-04-07T23:47:22.116Z,101168.13
2023-04-07T23:50:23.685Z,101170.00
2023-04-07T23:53:25.204Z,101176.28
2023-04-07T23:56:27.568Z,101179.13
2023-04-07T23:59:29.075Z,101173.69
